Commiskey, Indiana
Current Conditions -  °F | °C
As of 6:50 PM on Saturday 22 Nov 2014 (Local Time) from KBAK Reporting Station
Overcast Overcast  
Wind Chill: 54°   Ceiling: 7000
Heat Index: 54°   Visibility: 10mi
Dew Point: 37°   Wind: 12mph
Humidity: 54%   Direction: 190°S
Pressure: 30.05"   Gusts: 18mph
Location:  38.86°N, 85.65°W
Report Text: KBAK 222350Z 19010G16KT 10SM SCT055 BKN070 OVC120 12/03 A3005
Loading
Personal Weather Stations






























Interactive Weather Map New forecast layout! Learn more

10-Day Weather Forecast

Advertisements
Track Severe Weather on mobile